Time;durP1;ratioP1;P1;durP2;ratioP2;P2;SDS_P1;SDS_P2;PMS_P1;PMS_P2;Temp;Humidity;BMP_temperature;BMP_pressure;BME280_temperature;BME280_humidity;BME280_pressure;Samples;Min_cycle;Max_cycle;Signal;HPM_P1;HPM_P2
2022/07/12 00:01:26;;;;;;;3.13;2.83;;;;;13.80;94824.00;;;;7392694;19;20121;-75
2022/07/12 00:04:00;;;;;;;3.22;3.03;;;;;13.60;94827.00;;;;7392937;19;20611;-74
2022/07/12 00:06:28;;;;;;;3.20;2.90;;;;;13.70;94825.00;;;;7393487;19;20635;-74
2022/07/12 00:08:56;;;;;;;3.47;3.00;;;;;13.50;94823.00;;;;7394797;19;20594;-74
2022/07/12 00:11:30;;;;;;;3.67;3.00;;;;;13.60;94825.00;;;;7391401;19;20136;-74
2022/07/12 00:13:58;;;;;;;3.83;3.17;;;;;13.60;94826.00;;;;7389261;19;20480;-74
2022/07/12 00:16:25;;;;;;;5.40;3.10;;;;;13.50;94826.00;;;;7394092;19;20579;-74
2022/07/12 00:19:06;;;;;;;3.88;2.92;;;;;13.50;94825.00;;;;7392115;19;20137;-74
2022/07/12 00:21:33;;;;;;;5.38;3.20;;;;;13.50;94828.00;;;;7391584;19;20591;-75
2022/07/12 00:24:07;;;;;;;3.38;3.05;;;;;13.40;94825.00;;;;7391977;19;20151;-74
2022/07/12 00:26:35;;;;;;;3.25;2.70;;;;;13.20;94826.00;;;;7391999;19;20648;-74
2022/07/12 00:29:08;;;;;;;3.45;3.15;;;;;13.20;94820.00;;;;7390366;19;20208;-74
2022/07/12 00:31:43;;;;;;;3.90;2.75;;;;;13.20;94821.00;;;;7388372;19;20140;-73
2022/07/12 00:34:11;;;;;;;3.10;2.80;;;;;13.20;94823.00;;;;7391722;19;20196;-74
2022/07/12 00:36:38;;;;;;;4.20;3.25;;;;;13.20;94819.00;;;;7392704;19;20117;-74
2022/07/12 00:39:12;;;;;;;3.33;3.03;;;;;13.20;94821.00;;;;7392705;19;20133;-74
2022/07/12 00:41:39;;;;;;;3.22;2.92;;;;;13.20;94816.00;;;;7393220;19;20121;-74
2022/07/12 00:44:07;;;;;;;3.95;3.47;;;;;13.20;94817.00;;;;7392707;19;20607;-74
2022/07/12 00:46:42;;;;;;;4.38;3.20;;;;;13.20;94818.00;;;;7391152;19;20611;-74
2022/07/12 00:49:15;;;;;;;3.03;2.75;;;;;13.20;94820.00;;;;7393485;19;20654;-74
2022/07/12 00:51:50;;;;;;;3.53;3.00;;;;;13.10;94817.00;;;;7391926;19;20116;-74
2022/07/12 00:54:17;;;;;;;3.65;3.35;;;;;13.10;94820.00;;;;7391610;19;20128;-74
2022/07/12 00:56:45;;;;;;;4.43;2.70;;;;;13.00;94829.00;;;;7391659;19;20635;-74
2022/07/12 00:59:20;;;;;;;3.17;2.80;;;;;13.10;94828.00;;;;7391136;19;20124;-74
2022/07/12 01:01:47;;;;;;;4.03;2.78;;;;;13.10;94827.00;;;;7389891;19;20142;-74
2022/07/12 01:04:18;;;;;;;2.97;2.72;;;;;12.90;94832.00;;;;7390551;19;20554;-74
2022/07/12 01:06:52;;;;;;;3.08;2.78;;;;;13.00;94823.00;;;;7391289;19;20192;-74
2022/07/12 01:09:20;;;;;;;3.50;2.90;;;;;13.00;94825.00;;;;7390036;19;20485;-74
2022/07/12 01:11:48;;;;;;;3.58;3.08;;;;;13.00;94820.00;;;;7389429;19;20149;-74
2022/07/12 01:14:22;;;;;;;4.18;3.40;;;;;12.90;94815.00;;;;7385979;19;20183;-74
2022/07/12 01:16:51;;;;;;;3.60;3.30;;;;;12.80;94821.00;;;;7387489;19;20588;-73
2022/07/12 01:19:23;;;;;;;3.38;3.08;;;;;12.80;94822.00;;;;7388128;19;20125;-74
2022/07/12 01:21:59;;;;;;;3.50;3.20;;;;;12.70;94825.00;;;;7392282;19;20208;-73
2022/07/12 01:24:26;;;;;;;3.20;2.90;;;;;12.70;94822.00;;;;7389596;19;20227;-74
2022/07/12 01:26:55;;;;;;;3.58;3.00;;;;;12.70;94823.00;;;;7390605;19;20129;-73
2022/07/12 01:29:36;;;;;;;4.00;3.58;;;;;12.70;94832.00;;;;7390380;19;20144;-73
2022/07/12 01:35:01;;;;;;;4.80;3.20;;;;;12.60;94829.00;;;;7388054;19;20128;-73
2022/07/12 01:37:34;;;;;;;3.58;3.28;;;;;12.60;94828.00;;;;7389538;19;20170;-74
2022/07/12 01:40:13;;;;;;;4.05;3.50;;;;;12.80;94828.00;;;;7390748;19;20174;-73
2022/07/12 01:42:41;;;;;;;4.35;3.13;;;;;12.90;94826.00;;;;7395050;19;20144;-74
2022/07/12 01:45:16;;;;;;;3.88;3.25;;;;;12.90;94826.00;;;;7395922;19;20159;-75
2022/07/12 01:47:44;;;;;;;3.83;3.00;;;;;12.90;94815.00;;;;7396641;19;20148;-75
2022/07/12 01:50:11;;;;;;;4.10;3.30;;;;;13.00;94828.00;;;;7397458;19;20136;-73
2022/07/12 01:52:45;;;;;;;3.55;3.25;;;;;13.10;94821.00;;;;7394448;19;20483;-75
2022/07/12 01:55:13;;;;;;;4.07;2.85;;;;;13.10;94811.00;;;;7396550;19;20132;-75
2022/07/12 01:57:44;;;;;;;3.00;2.80;;;;;13.20;94819.00;;;;7399099;19;20125;-75
2022/07/12 02:00:19;;;;;;;2.55;2.35;;;;;13.20;94824.00;;;;7396269;19;20490;-75
2022/07/12 02:02:47;;;;;;;6.28;3.00;;;;;13.20;94822.00;;;;7396387;19;20137;-75
2022/07/12 02:05:15;;;;;;;3.08;2.28;;;;;13.10;94820.00;;;;7397609;19;20133;-75
2022/07/12 02:07:50;;;;;;;3.30;2.42;;;;;13.10;94809.00;;;;7397908;19;20466;-76
2022/07/12 02:10:17;;;;;;;2.97;2.30;;;;;13.10;94815.00;;;;7395447;19;20137;-75
2022/07/12 02:12:45;;;;;;;2.75;2.40;;;;;13.10;94815.00;;;;7396553;19;20477;-75
2022/07/12 02:15:19;;;;;;;2.72;2.53;;;;;13.20;94812.00;;;;7396329;19;20141;-76
2022/07/12 02:17:47;;;;;;;3.00;2.70;;;;;13.20;94815.00;;;;7396673;19;20491;-76
2022/07/12 02:20:15;;;;;;;4.72;2.60;;;;;13.10;94817.00;;;;7395287;19;20137;-75
2022/07/12 02:22:49;;;;;;;2.85;2.50;;;;;13.00;94817.00;;;;7397032;19;20144;-74
2022/07/12 02:25:17;;;;;;;2.78;2.50;;;;;12.90;94818.00;;;;7395641;19;20607;-74
2022/07/12 02:27:45;;;;;;;4.13;2.55;;;;;12.80;94817.00;;;;7395040;19;20137;-74
2022/07/12 02:30:26;;;;;;;2.65;2.45;;;;;12.60;94818.00;;;;7396431;19;20141;-73
2022/07/12 02:32:54;;;;;;;3.67;2.33;;;;;12.60;94811.00;;;;7393306;19;20466;-73
2022/07/12 02:35:28;;;;;;;2.33;2.13;;;;;12.60;94816.00;;;;7395425;19;20604;-75
2022/07/12 02:37:56;;;;;;;2.75;2.10;;;;;12.40;94806.00;;;;7396189;19;20810;-75
2022/07/12 02:43:16;;;;;;;4.05;2.40;;;;;12.50;94813.00;;;;7396547;19;20133;-73
2022/07/12 02:45:44;;;;;;;2.42;2.22;;;;;12.40;94804.00;;;;7394367;19;20572;-73
2022/07/12 02:48:12;;;;;;;2.60;2.35;;;;;12.40;94804.00;;;;7396978;19;20584;-74
2022/07/12 02:50:46;;;;;;;5.00;2.38;;;;;12.50;94806.00;;;;7395998;19;20164;-74
2022/07/12 02:53:14;;;;;;;2.40;2.20;;;;;12.50;94814.00;;;;7391228;19;20619;-74
2022/07/12 02:55:42;;;;;;;2.38;2.17;;;;;12.40;94802.00;;;;7395598;19;20151;-74
2022/07/12 02:58:16;;;;;;;4.20;2.45;;;;;12.70;94816.00;;;;7393888;19;20721;-74
2022/07/12 03:00:46;;;;;;;2.67;2.47;;;;;12.60;94811.00;;;;7395548;19;20129;-75
2022/07/12 03:03:14;;;;;;;2.38;2.17;;;;;12.70;94812.00;;;;7395432;19;20584;-75
2022/07/12 03:05:48;;;;;;;3.00;2.35;;;;;12.80;94815.00;;;;7394441;19;20140;-74
2022/07/12 03:08:17;;;;;;;2.58;2.38;;;;;12.80;94821.00;;;;7394762;19;20139;-75
2022/07/12 03:10:45;;;;;;;2.13;2.00;;;;;12.70;94814.00;;;;7394161;19;20165;-74
2022/07/12 03:13:19;;;;;;;3.03;2.42;;;;;12.70;94819.00;;;;7394549;19;20127;-74
2022/07/12 03:15:47;;;;;;;3.03;2.20;;;;;12.60;94823.00;;;;7392766;19;20152;-74
2022/07/12 03:18:15;;;;;;;2.78;1.85;;;;;12.50;94825.00;;;;7394127;19;20154;-74
2022/07/12 03:20:49;;;;;;;2.38;2.17;;;;;12.50;94823.00;;;;7394384;19;20128;-74
2022/07/12 03:23:17;;;;;;;2.17;1.98;;;;;12.60;94822.00;;;;7393740;19;20530;-75
2022/07/12 03:25:45;;;;;;;2.88;2.13;;;;;12.60;94824.00;;;;7395477;19;20121;-74
2022/07/12 03:28:26;;;;;;;2.63;2.42;;;;;12.50;94824.00;;;;7394326;19;20603;-73
2022/07/12 03:30:53;;;;;;;1.90;1.80;;;;;12.60;94829.00;;;;7392914;19;20592;-74
2022/07/12 03:33:27;;;;;;;2.10;1.90;;;;;12.50;94829.00;;;;7391076;19;20687;-74
2022/07/12 03:36:00;;;;;;;2.17;1.98;;;;;12.60;94821.00;;;;7396119;19;20117;-74
2022/07/12 03:38:35;;;;;;;2.20;2.00;;;;;12.60;94830.00;;;;7393823;19;20618;-74
2022/07/12 03:41:02;;;;;;;2.17;2.08;;;;;12.80;94827.00;;;;7394334;19;20129;-74
2022/07/12 03:43:30;;;;;;;5.25;2.05;;;;;12.80;94829.00;;;;7394122;19;20624;-74
2022/07/12 03:46:04;;;;;;;2.30;2.10;;;;;12.70;94834.00;;;;7391154;19;20603;-73
2022/07/12 03:48:32;;;;;;;2.72;2.53;;;;;12.80;94836.00;;;;7392634;19;20568;-74
2022/07/12 03:50:59;;;;;;;2.63;2.30;;;;;12.80;94832.00;;;;7395002;19;20117;-74
2022/07/12 03:53:33;;;;;;;2.13;1.92;;;;;12.70;94831.00;;;;7393166;19;20121;-74
2022/07/12 03:56:01;;;;;;;2.20;1.90;;;;;12.70;94833.00;;;;7391936;19;20635;-74
2022/07/12 03:58:28;;;;;;;1.98;1.70;;;;;12.50;94831.00;;;;7394168;19;20129;-74
2022/07/12 04:01:02;;;;;;;1.98;1.83;;;;;12.70;94842.00;;;;7392787;19;20133;-74
2022/07/12 04:03:30;;;;;;;1.77;1.67;;;;;12.60;94843.00;;;;7391906;19;20149;-74
2022/07/12 04:05:57;;;;;;;3.22;1.92;;;;;12.70;94841.00;;;;7390276;19;20150;-73
2022/07/12 04:08:31;;;;;;;1.85;1.75;;;;;12.60;94842.00;;;;7395430;19;20591;-74
2022/07/12 04:10:59;;;;;;;3.22;2.10;;;;;12.70;94840.00;;;;7391167;19;20194;-74
2022/07/12 04:13:26;;;;;;;3.28;2.53;;;;;12.70;94838.00;;;;7392534;19;20125;-74
2022/07/12 04:16:07;;;;;;;2.35;1.70;;;;;12.80;94839.00;;;;7391535;19;20143;-74
2022/07/12 04:18:34;;;;;;;1.50;1.40;;;;;12.70;94836.00;;;;7391565;19;20140;-75
2022/07/12 04:21:08;;;;;;;1.63;1.52;;;;;12.80;94839.00;;;;7392993;19;20145;-75
2022/07/12 04:23:36;;;;;;;2.00;1.70;;;;;12.90;94835.00;;;;7394088;19;20117;-74
2022/07/12 04:26:03;;;;;;;2.70;1.65;;;;;12.80;94831.00;;;;7391438;19;20144;-74
2022/07/12 04:28:52;;;;;;;1.50;1.40;;;;;12.90;94834.00;;;;7390604;19;20172;-74
2022/07/12 04:31:26;;;;;;;1.80;1.70;;;;;13.00;94840.00;;;;7391492;19;20136;-74
2022/07/12 04:34:00;;;;;;;2.63;1.30;;;;;13.00;94835.00;;;;7391878;19;20128;-74
2022/07/12 04:36:28;;;;;;;2.15;1.30;;;;;13.10;94841.00;;;;7392893;19;20626;-74
2022/07/12 04:38:55;;;;;;;1.63;1.20;;;;;13.30;94844.00;;;;7392365;19;20137;-74
2022/07/12 04:41:29;;;;;;;1.30;1.20;;;;;13.40;94844.00;;;;7392166;19;20125;-73
2022/07/12 04:43:57;;;;;;;1.20;1.10;;;;;13.60;94842.00;;;;7384240;19;20512;-73
2022/07/12 04:46:24;;;;;;;1.00;1.00;;;;;13.80;94841.00;;;;7390109;19;20606;-74
2022/07/12 04:48:58;;;;;;;1.27;1.17;;;;;14.00;94835.00;;;;7393665;19;20152;-75
2022/07/12 04:51:27;;;;;;;0.77;0.77;;;;;14.20;94825.00;;;;7391326;19;20144;-73
2022/07/12 04:53:54;;;;;;;0.70;0.70;;;;;14.50;94829.00;;;;7390326;19;20172;-73
2022/07/12 04:56:28;;;;;;;3.10;2.33;;;;;14.60;94829.00;;;;7392133;19;20156;-72
2022/07/12 04:58:56;;;;;;;1.50;1.40;;;;;14.70;94828.00;;;;7394680;19;20132;-73
2022/07/12 05:01:30;;;;;;;0.88;0.88;;;;;14.90;94827.00;;;;7391815;19;20575;-73
2022/07/12 05:04:04;;;;;;;0.80;0.80;;;;;15.10;94828.00;;;;7392202;19;20117;-72
2022/07/12 05:06:32;;;;;;;0.98;0.77;;;;;15.20;94828.00;;;;7392006;19;20191;-73
2022/07/12 05:08:59;;;;;;;0.80;0.80;;;;;15.40;94826.00;;;;7393558;19;20152;-75
2022/07/12 05:11:34;;;;;;;0.80;0.80;;;;;15.60;94833.00;;;;7389515;19;20228;-74
2022/07/12 05:14:03;;;;;;;0.88;0.77;;;;;15.70;94831.00;;;;7393294;19;20619;-74
2022/07/12 05:16:32;;;;;;;1.13;0.90;;;;;15.90;94842.00;;;;7395341;19;20145;-74
2022/07/12 05:19:06;;;;;;;0.80;0.80;;;;;16.00;94834.00;;;;7393795;19;20148;-75
2022/07/12 05:21:35;;;;;;;0.90;0.70;;;;;16.20;94837.00;;;;7392065;19;20151;-75
2022/07/12 05:24:03;;;;;;;0.75;0.75;;;;;16.30;94840.00;;;;7392154;19;20616;-76
2022/07/12 05:26:37;;;;;;;0.50;0.50;;;;;16.50;94842.00;;;;7390205;19;20481;-73
2022/07/12 05:29:28;;;;;;;0.60;0.60;;;;;16.40;94841.00;;;;7391860;19;20219;-76
2022/07/12 05:32:02;;;;;;;0.90;0.60;;;;;16.60;94844.00;;;;7391502;19;20599;-74
2022/07/12 05:34:38;;;;;;;0.98;0.70;;;;;16.70;94845.00;;;;7391492;19;20148;-75
2022/07/12 05:37:12;;;;;;;0.50;0.50;;;;;16.80;94843.00;;;;7389624;19;20152;-75
2022/07/12 05:39:39;;;;;;;1.38;0.70;;;;;17.10;94848.00;;;;7391294;19;20237;-76
2022/07/12 05:42:11;;;;;;;0.40;0.40;;;;;17.20;94856.00;;;;7389859;19;20592;-74
2022/07/12 05:44:45;;;;;;;0.82;0.82;;;;;17.40;94858.00;;;;7391351;19;20173;-75
2022/07/12 05:47:13;;;;;;;0.95;0.95;;;;;17.50;94859.00;;;;7391545;19;20148;-75
2022/07/12 05:49:40;;;;;;;0.57;0.50;;;;;17.60;94868.00;;;;7391156;19;20125;-76
2022/07/12 05:55:00;;;;;;;0.50;0.50;;;;;17.80;94865.00;;;;7392819;19;20157;-76
2022/07/12 05:57:34;;;;;;;0.65;0.50;;;;;17.80;94865.00;;;;7390534;19;20192;-75
2022/07/12 06:00:03;;;;;;;1.00;0.90;;;;;18.00;94865.00;;;;7390749;19;20133;-75
2022/07/12 06:02:31;;;;;;;0.40;0.40;;;;;18.20;94873.00;;;;7390926;19;20153;-76
2022/07/12 06:05:06;;;;;;;1.98;0.70;;;;;18.40;94877.00;;;;7393832;19;20211;-74
2022/07/12 06:07:34;;;;;;;0.85;0.70;;;;;18.50;94871.00;;;;7391471;19;20133;-75
2022/07/12 06:10:02;;;;;;;0.60;0.60;;;;;18.60;94872.00;;;;7391542;19;20452;-73
2022/07/12 06:12:37;;;;;;;0.80;0.55;;;;;18.80;94878.00;;;;7389521;19;20175;-74
2022/07/12 06:15:06;;;;;;;2.35;0.60;;;;;18.90;94876.00;;;;7392102;19;20148;-74
2022/07/12 06:17:35;;;;;;;0.47;0.47;;;;;19.00;94882.00;;;;7390219;19;20626;-74
2022/07/12 06:20:10;;;;;;;0.82;0.80;;;;;19.10;94884.00;;;;7389717;19;20121;-73
2022/07/12 06:22:37;;;;;;;0.50;0.50;;;;;19.10;94896.00;;;;7391680;19;20133;-73
2022/07/12 06:25:06;;;;;;;0.60;0.60;;;;;19.20;94903.00;;;;7391914;19;20137;-74
2022/07/12 06:28:14;;;;;;;0.60;0.60;;;;;19.60;94891.00;;;;7386639;19;20178;-74
2022/07/12 06:30:48;;;;;;;0.80;0.80;;;;;19.70;94894.00;;;;7398778;19;20152;-75
2022/07/12 06:33:22;;;;;;;0.55;0.55;;;;;19.90;94903.00;;;;7395028;19;20132;-74
2022/07/12 06:35:50;;;;;;;0.82;0.82;;;;;19.90;94898.00;;;;7395337;19;20152;-75
2022/07/12 06:38:17;;;;;;;0.82;0.60;;;;;20.10;94892.00;;;;7395951;19;20125;-74
2022/07/12 06:40:51;;;;;;;0.98;0.77;;;;;20.30;94896.00;;;;7398552;19;20155;-74
2022/07/12 06:43:19;;;;;;;0.73;0.73;;;;;20.40;94895.00;;;;7398503;19;20600;-75
2022/07/12 06:45:49;;;;;;;1.60;0.77;;;;;20.30;94900.00;;;;7397112;19;20125;-75
2022/07/12 06:48:23;;;;;;;1.35;0.55;;;;;20.20;94899.00;;;;7399324;19;20147;-75
2022/07/12 06:50:51;;;;;;;0.82;0.80;;;;;19.90;94911.00;;;;7399677;19;20623;-75
2022/07/12 06:53:20;;;;;;;1.38;1.00;;;;;19.80;94917.00;;;;7394627;19;20133;-75
2022/07/12 06:55:57;;;;;;;0.82;0.82;;;;;19.40;94905.00;;;;7395169;19;20164;-74
2022/07/12 06:58:24;;;;;;;0.70;0.70;;;;;19.30;94910.00;;;;7398255;19;20854;-75
2022/07/12 07:00:53;;;;;;;1.48;0.80;;;;;19.30;94918.00;;;;7397397;19;20133;-75
2022/07/12 07:03:28;;;;;;;2.17;1.00;;;;;19.30;94912.00;;;;7394159;19;20141;-74
2022/07/12 07:05:55;;;;;;;0.70;0.70;;;;;19.50;94924.00;;;;7395111;19;20498;-74
2022/07/12 07:08:23;;;;;;;1.38;0.90;;;;;19.80;94915.00;;;;7398196;19;20138;-74
2022/07/12 07:10:57;;;;;;;0.85;0.85;;;;;19.90;94924.00;;;;7398203;19;20479;-74
2022/07/12 07:13:25;;;;;;;0.90;0.80;;;;;20.10;94925.00;;;;7394190;19;20133;-74
2022/07/12 07:15:52;;;;;;;3.05;0.93;;;;;20.30;94929.00;;;;7394176;19;20228;-73
2022/07/12 07:18:27;;;;;;;1.00;0.90;;;;;20.50;94928.00;;;;7398440;19;20582;-73
2022/07/12 07:20:55;;;;;;;0.60;0.60;;;;;20.80;94932.00;;;;7395551;19;20670;-73
2022/07/12 07:23:22;;;;;;;0.90;0.80;;;;;21.10;94931.00;;;;7396897;19;20125;-73
2022/07/12 07:25:56;;;;;;;1.30;0.90;;;;;21.00;94929.00;;;;7396636;19;20200;-74
2022/07/12 07:31:39;;;;;;;1.42;0.85;;;;;21.10;94938.00;;;;7398836;19;20635;-74
2022/07/12 07:34:07;;;;;;;1.60;0.70;;;;;21.40;94930.00;;;;7392847;19;20756;-73
2022/07/12 07:36:44;;;;;;;3.25;0.80;;;;;21.40;94922.00;;;;7395574;19;20175;-74
2022/07/12 07:39:12;;;;;;;4.65;0.90;;;;;21.40;94928.00;;;;7395596;19;20289;-74
2022/07/12 07:41:49;;;;;;;1.00;0.80;;;;;21.50;94932.00;;;;7394951;19;20591;-74
2022/07/12 07:44:24;;;;;;;2.00;0.73;;;;;21.50;94937.00;;;;7394189;19;20162;-74
2022/07/12 07:47:01;;;;;;;0.63;0.63;;;;;21.60;94937.00;;;;7396757;19;20203;-74
2022/07/12 07:49:36;;;;;;;1.38;0.98;;;;;22.00;94937.00;;;;7387770;19;20197;-74
2022/07/12 07:52:13;;;;;;;0.85;0.85;;;;;22.10;94934.00;;;;7391117;19;20203;-73
2022/07/12 07:54:47;;;;;;;1.10;1.10;;;;;22.20;94931.00;;;;7392832;19;20481;-74
2022/07/12 07:57:14;;;;;;;3.00;1.20;;;;;22.10;94938.00;;;;7397532;19;20541;-73
2022/07/12 07:59:42;;;;;;;1.30;1.20;;;;;22.30;94935.00;;;;7393099;19;20748;-74
2022/07/12 08:02:16;;;;;;;2.30;1.20;;;;;21.60;94929.00;;;;7393814;19;20538;-74
2022/07/12 08:04:43;;;;;;;1.88;1.20;;;;;22.10;94931.00;;;;7396582;19;20125;-73
2022/07/12 08:07:11;;;;;;;1.05;1.02;;;;;22.60;94930.00;;;;7395724;19;20610;-74
2022/07/12 08:10:06;;;;;;;1.55;1.02;;;;;23.30;94927.00;;;;7393251;19;20212;-76
2022/07/12 08:12:34;;;;;;;2.22;1.27;;;;;23.60;94928.00;;;;7393402;19;20152;-74
2022/07/12 08:15:09;;;;;;;1.30;1.20;;;;;23.50;94928.00;;;;7395955;19;20120;-74
2022/07/12 08:17:37;;;;;;;2.30;1.40;;;;;23.50;94922.00;;;;7391899;19;20467;-74
2022/07/12 08:20:12;;;;;;;1.90;1.60;;;;;23.50;94919.00;;;;7392091;19;20141;-74
2022/07/12 08:23:07;;;;;;;1.85;1.48;;;;;23.70;94918.00;;;;7392074;19;20580;-74
2022/07/12 08:25:35;;;;;;;1.48;1.38;;;;;23.20;94924.00;;;;7392377;19;20457;-74
2022/07/12 08:28:23;;;;;;;4.22;1.67;;;;;23.30;94917.00;;;;7389775;19;20147;-74
2022/07/12 08:30:57;;;;;;;1.55;1.38;;;;;23.60;94931.00;;;;7395253;19;20594;-74
2022/07/12 08:33:31;;;;;;;1.88;1.10;;;;;24.00;94931.00;;;;7391973;19;20125;-74
2022/07/12 08:35:59;;;;;;;3.30;1.15;;;;;23.80;94953.00;;;;7393415;19;20132;-74
2022/07/12 08:38:30;;;;;;;3.38;1.40;;;;;23.00;94953.00;;;;7393623;19;20136;-75
2022/07/12 08:41:05;;;;;;;1.75;1.50;;;;;22.90;94936.00;;;;7396772;19;20583;-75
2022/07/12 08:43:41;;;;;;;1.63;1.52;;;;;23.30;94941.00;;;;7392227;19;20603;-74
2022/07/12 08:46:15;;;;;;;2.25;1.52;;;;;23.50;94956.00;;;;7391958;19;20148;-75
2022/07/12 08:48:44;;;;;;;1.50;1.40;;;;;22.90;94967.00;;;;7395660;19;20643;-75
2022/07/12 08:51:21;;;;;;;1.55;1.25;;;;;22.60;94958.00;;;;7392548;19;20216;-75
2022/07/12 08:54:12;;;;;;;2.53;1.23;;;;;22.60;94959.00;;;;7391078;19;20144;-74
2022/07/12 08:56:41;;;;;;;1.27;1.17;;;;;23.20;94964.00;;;;7392801;19;20140;-76
2022/07/12 08:59:21;;;;;;;1.40;1.27;;;;;23.70;94963.00;;;;7395700;19;20140;-76
2022/07/12 09:01:55;;;;;;;3.15;1.50;;;;;24.10;94963.00;;;;7391394;19;20136;-75
2022/07/12 09:04:30;;;;;;;1.25;1.10;;;;;24.30;94960.00;;;;7393856;19;20163;-74
2022/07/12 09:07:15;;;;;;;2.95;1.30;;;;;24.10;94959.00;;;;7394200;19;20137;-76
2022/07/12 09:09:49;;;;;;;1.70;1.20;;;;;24.10;94955.00;;;;7393276;19;20615;-74
2022/07/12 09:12:23;;;;;;;1.35;1.20;;;;;23.80;94947.00;;;;7387129;19;20156;-74
2022/07/12 09:15:21;;;;;;;0.90;0.90;;;;;23.90;94953.00;;;;7392763;19;20137;-75
2022/07/12 09:17:58;;;;;;;1.13;1.10;;;;;23.70;94946.00;;;;7391553;19;20132;-73
2022/07/12 09:20:36;;;;;;;3.05;1.48;;;;;23.50;94968.00;;;;7393921;19;20133;-73
2022/07/12 09:23:05;;;;;;;0.95;0.95;;;;;23.00;94952.00;;;;7392093;19;20152;-75
2022/07/12 09:25:45;;;;;;;1.35;1.20;;;;;23.10;94953.00;;;;7390445;19;20515;-75
2022/07/12 09:28:25;;;;;;;4.47;1.33;;;;;23.70;94967.00;;;;7387701;19;20137;-75
2022/07/12 09:31:00;;;;;;;2.65;1.02;;;;;23.90;94958.00;;;;7394709;19;20583;-73
2022/07/12 09:36:24;;;;;;;4.22;1.40;;;;;24.30;94971.00;;;;7393835;19;20586;-74
2022/07/12 09:38:54;;;;;;;1.73;1.15;;;;;23.90;94970.00;;;;7389950;19;20133;-73
2022/07/12 09:41:29;;;;;;;1.00;1.00;;;;;24.20;94962.00;;;;7389201;19;20144;-74
2022/07/12 09:43:58;;;;;;;4.20;1.20;;;;;23.90;94968.00;;;;7391059;19;20133;-76
2022/07/12 09:46:28;;;;;;;1.50;1.40;;;;;24.10;94963.00;;;;7390948;19;20160;-74
2022/07/12 09:49:04;;;;;;;2.78;1.52;;;;;24.40;94959.00;;;;7392652;19;20150;-73
2022/07/12 09:51:33;;;;;;;1.85;1.13;;;;;24.80;94963.00;;;;7391381;19;20151;-76
2022/07/12 09:54:04;;;;;;;1.15;1.13;;;;;24.90;94962.00;;;;7390274;19;20145;-74
2022/07/12 09:56:43;;;;;;;1.30;1.20;;;;;24.80;94954.00;;;;7392353;19;20180;-77
2022/07/12 09:59:13;;;;;;;1.50;1.40;;;;;24.50;94958.00;;;;7393688;19;20149;-75
2022/07/12 10:01:47;;;;;;;1.35;1.17;;;;;25.00;94958.00;;;;7389456;19;20450;-77
2022/07/12 10:04:19;;;;;;;3.55;1.20;;;;;24.90;94962.00;;;;7397531;19;20455;-75
2022/07/12 10:06:56;;;;;;;3.80;1.33;;;;;25.10;94965.00;;;;7401978;19;20470;-75
2022/07/12 10:09:25;;;;;;;1.75;1.33;;;;;25.20;94959.00;;;;7397357;19;20151;-73
2022/07/12 10:11:54;;;;;;;1.38;1.27;;;;;25.00;94970.00;;;;7395156;19;20144;-75
2022/07/12 10:14:39;;;;;;;3.63;1.08;;;;;25.20;94956.00;;;;7398492;19;20153;-75
2022/07/12 10:17:12;;;;;;;2.28;1.10;;;;;25.10;94967.00;;;;7400556;19;20654;-74
2022/07/12 10:19:46;;;;;;;1.42;1.25;;;;;25.40;94962.00;;;;7397742;19;20151;-73
2022/07/12 10:22:21;;;;;;;1.45;1.20;;;;;25.90;94982.00;;;;7397042;19;20125;-76
2022/07/12 10:24:55;;;;;;;1.58;1.20;;;;;24.80;94970.00;;;;7398284;19;20148;-76
2022/07/12 10:27:24;;;;;;;1.70;1.20;;;;;25.00;94969.00;;;;7395710;19;20160;-76
2022/07/12 10:29:52;;;;;;;6.32;1.20;;;;;25.20;94967.00;;;;7396571;19;20141;-74
2022/07/12 10:32:35;;;;;;;1.25;1.20;;;;;25.50;94962.00;;;;7397570;19;20128;-74
2022/07/12 10:35:11;;;;;;;1.30;1.17;;;;;25.40;94977.00;;;;7397732;19;20887;-74
2022/07/12 10:38:17;;;;;;;2.92;1.20;;;;;24.60;94977.00;;;;7398640;19;20587;-76
2022/07/12 10:40:46;;;;;;;1.58;1.20;;;;;24.00;94973.00;;;;7398836;19;20582;-74
2022/07/12 10:46:23;;;;;;;1.40;1.00;;;;;24.00;94962.00;;;;7397037;19;20168;-75
2022/07/12 10:49:24;;;;;;;3.60;1.30;;;;;25.40;94965.00;;;;7398561;19;20149;-75
2022/07/12 10:52:10;;;;;;;3.75;1.13;;;;;25.80;94978.00;;;;7395616;19;20172;-75
2022/07/12 10:55:13;;;;;;;0.98;0.95;;;;;24.70;94966.00;;;;7396239;19;20178;-75
2022/07/12 10:57:46;;;;;;;5.47;1.20;;;;;25.10;94963.00;;;;7396093;19;20137;-74
2022/07/12 11:00:27;;;;;;;0.90;0.73;;;;;25.90;94959.00;;;;7396318;19;20634;-76
2022/07/12 11:02:59;;;;;;;0.80;0.80;;;;;26.60;94960.00;;;;7396151;19;20148;-74
2022/07/12 11:05:35;;;;;;;2.45;0.90;;;;;26.50;94956.00;;;;7395363;19;20591;-74
2022/07/12 11:08:03;;;;;;;0.90;0.90;;;;;26.90;94952.00;;;;7397115;19;20492;-76
2022/07/12 11:10:36;;;;;;;1.85;1.00;;;;;26.70;94962.00;;;;7395997;19;20151;-74
2022/07/12 11:13:26;;;;;;;2.05;1.10;;;;;26.90;94965.00;;;;7398264;19;20219;-74
2022/07/12 11:16:00;;;;;;;4.18;1.13;;;;;27.10;94957.00;;;;7392686;19;20212;-75
2022/07/12 11:18:35;;;;;;;0.85;0.85;;;;;26.90;94957.00;;;;7396781;19;20144;-74
2022/07/12 11:21:04;;;;;;;0.80;0.80;;;;;26.70;94962.00;;;;7399776;19;20480;-74
2022/07/12 11:23:34;;;;;;;2.42;1.25;;;;;26.40;94972.00;;;;7392502;19;20172;-74
2022/07/12 11:26:11;;;;;;;1.00;0.82;;;;;26.40;94954.00;;;;7394704;19;20515;-73
2022/07/12 11:28:48;;;;;;;0.80;0.80;;;;;26.80;94957.00;;;;7393690;19;20153;-74
2022/07/12 11:31:29;;;;;;;1.65;1.00;;;;;27.30;94948.00;;;;7395598;19;20148;-74
2022/07/12 11:33:57;;;;;;;2.13;0.90;;;;;27.70;94956.00;;;;7394457;19;20585;-76
2022/07/12 11:36:35;;;;;;;1.10;0.98;;;;;27.70;94957.00;;;;7393988;19;20161;-75
2022/07/12 11:39:03;;;;;;;1.00;0.90;;;;;27.80;94959.00;;;;7397448;19;20641;-75
2022/07/12 11:41:35;;;;;;;2.92;0.90;;;;;27.80;94961.00;;;;7396015;19;20131;-73
2022/07/12 11:44:09;;;;;;;0.80;0.80;;;;;28.00;94954.00;;;;7394748;19;20140;-74
2022/07/12 11:46:39;;;;;;;0.93;0.80;;;;;27.80;94955.00;;;;7396078;19;20133;-73
2022/07/12 11:49:08;;;;;;;0.90;0.90;;;;;27.30;94953.00;;;;7398845;19;20205;-74
2022/07/12 11:51:45;;;;;;;0.98;0.82;;;;;27.10;94953.00;;;;7396699;19;20159;-73
2022/07/12 11:54:13;;;;;;;2.20;1.02;;;;;27.50;94947.00;;;;7392911;19;20141;-74
2022/07/12 11:56:41;;;;;;;0.95;0.80;;;;;26.60;94953.00;;;;7393404;19;20144;-74
2022/07/12 11:59:22;;;;;;;0.65;0.60;;;;;26.70;94951.00;;;;7396834;19;20587;-75
2022/07/12 12:02:07;;;;;;;0.77;0.70;;;;;26.90;94962.00;;;;7393811;19;20151;-74
2022/07/12 12:04:45;;;;;;;0.85;0.80;;;;;27.20;94955.00;;;;7392558;19;20139;-74
2022/07/12 12:07:18;;;;;;;1.73;0.80;;;;;27.30;94952.00;;;;7391914;19;20125;-77
2022/07/12 12:10:13;;;;;;;5.72;0.70;;;;;27.00;94951.00;;;;7391406;19;20600;-75
2022/07/12 12:12:46;;;;;;;1.27;0.82;;;;;27.80;94948.00;;;;7387296;19;20208;-75
2022/07/12 12:15:26;;;;;;;0.70;0.70;;;;;27.90;94939.00;;;;7385939;19;20137;-74
2022/07/12 12:17:59;;;;;;;1.65;0.90;;;;;28.10;94949.00;;;;7387380;19;20153;-76
2022/07/12 12:20:43;;;;;;;1.05;0.95;;;;;27.90;94936.00;;;;7389893;19;20638;-74
2022/07/12 12:23:19;;;;;;;2.85;0.77;;;;;28.00;94936.00;;;;7391235;19;20144;-75
2022/07/12 12:26:07;;;;;;;1.52;0.80;;;;;27.90;94934.00;;;;7386638;19;20156;-74
2022/07/12 12:29:02;;;;;;;0.73;0.73;;;;;28.00;94929.00;;;;7388489;19;20191;-74
2022/07/12 12:31:44;;;;;;;2.05;0.80;;;;;28.00;94928.00;;;;7385999;19;20189;-74
2022/07/12 12:34:12;;;;;;;0.93;0.70;;;;;28.20;94935.00;;;;7388330;19;20156;-73
2022/07/12 12:36:45;;;;;;;3.13;0.82;;;;;27.60;94937.00;;;;7389554;19;20148;-77
2022/07/12 12:39:28;;;;;;;1.85;0.75;;;;;27.90;94941.00;;;;7392487;19;20129;-76
2022/07/12 12:42:03;;;;;;;1.05;0.95;;;;;27.80;94934.00;;;;7388149;19;20137;-76
2022/07/12 12:44:34;;;;;;;0.80;0.75;;;;;27.60;94937.00;;;;7388917;19;20690;-75
2022/07/12 12:50:02;;;;;;;1.05;0.80;;;;;27.80;94936.00;;;;7387853;19;20153;-74
2022/07/12 12:52:31;;;;;;;0.70;0.70;;;;;27.60;94940.00;;;;7386902;19;20149;-74
2022/07/12 12:55:06;;;;;;;0.52;0.52;;;;;27.70;94937.00;;;;7387434;19;20133;-75
2022/07/12 12:57:33;;;;;;;1.05;0.77;;;;;27.70;94930.00;;;;7386291;19;20635;-74
2022/07/12 13:00:01;;;;;;;0.95;0.90;;;;;27.80;94930.00;;;;7386668;19;20159;-74
2022/07/12 13:02:36;;;;;;;1.73;0.70;;;;;27.90;94923.00;;;;7387796;19;20610;-76
2022/07/12 13:05:05;;;;;;;0.90;0.88;;;;;27.70;94937.00;;;;7387614;19;20607;-75
2022/07/12 13:07:33;;;;;;;1.80;0.63;;;;;27.40;94940.00;;;;7385781;19;20145;-74